DW2690 Weather Reports


Display with metric or nautical units.
time (UTC)temp
F
wind
direction
speed
MPH
gust
MPH
rain 1hr
in
rain 24hr
in
rain mn
in
humidity
%
barometer
mb
20210410151940 36 25 0.0 0.0 0.00 0.25 0.23 96 1019.2
20210410151313 36 25 0.0 0.0 0.00 0.25 0.23 96 1019.1
20210410150827 36 25 0.0 0.0 0.00 0.25 0.23 96 1018.9
20210410150550 36 25 0.0 0.0 0.01 0.25 0.23 96 1018.8
20210410150219 36 25 0.0 0.0 0.01 0.25 0.23 96 1018.7
20210410150033 36 25 0.0 0.0 0.01 0.25 0.23 96 1018.6
20210410145012 36 25 0.0 0.0 0.01 0.25 0.23 96 1018.6
20210410144313 36 25 0.0 0.0 0.01 0.25 0.23 96 1018.5
20210410143820 36 25 0.0 0.0 0.01 0.25 0.23 96 1018.3
20210410143328 36 25 0.0 0.0 0.01 0.25 0.23 96 1018.3
20210410142923 36 25 0.0 0.0 0.01 0.25 0.23 96 1018.1
20210410142758 36 25 0.0 0.0 0.01 0.25 0.23 96 1018.0
20210410141904 36 25 0.0 0.0 0.01 0.25 0.23 96 1017.8
20210410141315 36 25 0.0 0.0 0.01 0.25 0.23 96 1017.7
20210410140818 36 25 0.0 0.0 0.02 0.25 0.23 96 1017.7
20210410140437 36 25 0.0 0.0 0.01 0.24 0.22 96 1017.6
20210410140208 36 25 0.0 0.0 0.01 0.24 0.22 96 1017.5
20210410135918 36 25 0.0 0.0 0.02 0.24 0.22 96 1017.5
20210410135101 36 25 0.0 0.0 0.02 0.24 0.22 96 1017.5
20210410134321 36 25 0.0 0.0 0.03 0.24 0.22 96 1017.4
20210410133815 36 25 0.0 0.0 0.04 0.24 0.22 96 1017.4
20210410133314 36 25 0.0 0.0 0.04 0.24 0.22 96 1017.3
20210410132822 36 24 0.0 2.0 0.06 0.24 0.22 96 1017.1
20210410131946 36 165 1.0 1.0 0.06 0.24 0.22 96 1016.9
20210410131310 36 165 0.0 1.0 0.07 0.24 0.22 96 1017.0
20210410130818 36 165 0.0 2.0 0.06 0.23 0.21 96 1016.9
20210410130321 36 165 1.0 4.0 0.06 0.23 0.21 96 1016.9
20210410125107 35 84 0.0 2.0 0.07 0.22 0.20 95 1016.9
20210410124332 35 323 1.0 2.0 0.06 0.21 0.19 95 1016.9
20210410123830 35 308 1.0 2.0 0.05 0.20 0.18 95 1016.8
20210410123455 35 307 1.0 2.0 0.05 0.19 0.17 95 1016.7
20210410122822 35 105 0.0 2.0 0.04 0.18 0.16 95 1016.7
20210410121824 35 105 0.0 2.0 0.04 0.18 0.16 95 1016.8
20210410121321 35 105 1.0 2.0 0.03 0.17 0.15 95 1016.6
20210410120814 35 105 0.0 2.0 0.03 0.17 0.15 94 1016.4
20210410120313 35 105 1.0 7.0 0.03 0.17 0.15 94 1016.4
20210410120118 36 88 3.0 7.0 0.02 0.16 0.14 94 1016.4
20210410115822 36 134 1.0 2.0 0.03 0.16 0.14 94 1016.4
20210410114922 36 134 2.0 4.0 0.02 0.15 0.13 93 1016.4
20210410114329 37 134 0.0 4.0 0.03 0.15 0.13 94 1016.3
20210410113816 37 134 0.0 0.0 0.03 0.15 0.13 95 1016.3
20210410113320 37 134 0.0 0.0 0.03 0.14 0.12 95 1016.0
20210410112846 37 134 0.0 0.0 0.05 0.14 0.12 94 1016.0
20210410112731 37 134 0.0 0.0 0.06 0.14 0.12 95 1015.9
20210410112057 37 134 0.0 0.0 0.07 0.14 0.12 94 1015.9
20210410111328 37 134 0.0 0.0 0.08 0.14 0.12 94 1015.7
20210410110824 37 134 0.0 0.0 0.10 0.14 0.12 94 1015.7
20210410110319 37 134 0.0 2.0 0.11 0.14 0.12 94 1015.7
20210410105921 37 134 1.0 2.0 0.12 0.14 0.12 94 1015.7
20210410105745 37 134 0.0 0.0 0.11 0.13 0.11 94 1015.6
20210410104908 38 134 0.0 0.0 0.11 0.13 0.11 93 1015.5
20210410104309 38 134 0.0 0.0 0.10 0.12 0.10 93 1015.5
20210410103821 38 134 0.0 0.0 0.10 0.12 0.10 93 1015.4
20210410103320 38 134 0.0 0.0 0.09 0.11 0.09 93 1015.2
20210410102908 38 134 0.0 0.0 0.07 0.09 0.07 92 1015.1
20210410102750 39 134 0.0 1.0 0.06 0.08 0.06 93 1015.0
20210410101915 39 134 1.0 2.0 0.05 0.07 0.05 93 1015.0
20210410101305 39 134 0.0 2.0 0.04 0.06 0.04 92 1014.9
20210410100822 40 146 0.0 2.0 0.02 0.04 0.02 92 1014.8
20210410100307 40 146 0.0 4.0 0.01 0.03 0.01 92 1014.7
20210410100011 40 146 2.0 4.0 0.00 0.02 0.00 92 1014.6
20210410095836 40 146 0.0 0.0 0.00 0.02 0.00 92 1014.6
20210410095008 40 146 0.0 1.0 0.00 0.02 0.00 92 1014.7
20210410094312 40 146 0.0 1.0 0.00 0.02 0.00 92 1014.7
20210410093822 40 146 0.0 1.0 0.00 0.02 0.00 92 1014.7
20210410093323 40 146 0.0 0.0 0.00 0.02 0.00 92 1014.7
20210410092810 40 145 0.0 1.0 0.00 0.02 0.00 91 1014.7
20210410092539 40 145 0.0 2.0 0.00 0.02 0.00 90 1014.7
20210410091903 40 145 0.0 2.0 0.00 0.02 0.00 90 1014.7
20210410091316 40 81 1.0 2.0 0.00 0.02 0.00 90 1014.5
20210410090821 41 53 1.0 2.0 0.00 0.02 0.00 89 1014.5
20210410090331 41 53 0.0 3.0 0.00 0.02 0.00 89 1014.5
20210410085856 41 53 1.0 3.0 0.00 0.02 0.00 88 1014.5
20210410085702 41 337 1.0 3.0 0.00 0.02 0.00 87 1014.5
20210410084836 42 336 1.0 3.0 0.00 0.02 0.00 86 1014.6
20210410084313 43 25 0.0 4.0 0.00 0.02 0.00 85 1014.6
20210410083821 44 19 0.0 2.0 0.00 0.02 0.00 85 1014.6
20210410083311 44 19 0.0 2.0 0.00 0.02 0.00 89 1014.4
20210410082823 44 19 0.0 1.0 0.00 0.02 0.00 89 1014.4
20210410082446 44 24 0.0 3.0 0.00 0.02 0.00 89 1014.4
20210410081840 44 24 1.0 3.0 0.00 0.02 0.00 89 1014.4
20210410081322 44 287 2.0 3.0 0.00 0.02 0.00 89 1014.4
20210410080818 44 270 1.0 5.0 0.00 0.02 0.00 88 1014.4
20210410080317 44 210 3.0 5.0 0.00 0.02 0.00 88 1014.3
20210410080027 44 342 1.0 5.0 0.00 0.02 0.00 88 1014.2
20210410075827 44 306 1.0 9.0 0.00 0.02 0.00 88 1014.1
20210410074925 44 202 4.0 9.0 0.00 0.02 0.00 88 1013.9
20210410074322 44 179 2.0 7.0 0.00 0.02 0.00 88 1013.7
20210410073815 44 349 2.0 7.0 0.00 0.02 0.00 88 1013.5
20210410073318 44 197 2.0 6.0 0.00 0.02 0.00 88 1013.6
20210410072826 43 202 2.0 7.0 0.01 0.02 0.00 88 1013.6
20210410072455 43 200 3.0 7.0 0.01 0.02 0.00 89 1013.7
20210410071857 43 219 2.0 4.0 0.01 0.02 0.00 89 1013.6
20210410071324 43 205 3.0 5.0 0.01 0.02 0.00 89 1013.5
20210410070815 43 198 3.0 6.0 0.01 0.02 0.00 89 1013.5
20210410070317 43 182 2.0 6.0 0.02 0.02 0.00 90 1013.4
20210410065930 43 181 3.0 5.0 0.02 0.02 0.00 91 1013.5
20210410065757 43 191 3.0 5.0 0.02 0.02 0.02 91 1013.5
20210410064913 43 61 3.0 5.0 0.02 0.02 0.02 91 1013.6
20210410064331 43 189 2.0 4.0 0.02 0.02 0.02 91 1013.6
20210410063817 43 188 3.0 4.0 0.02 0.02 0.02 90 1013.6
20210410063538 43 191 1.0 5.0 0.02 0.02 0.02 90 1013.6
20210410063154 43 187 3.0 5.0 0.01 0.01 0.01 90 1013.6
20210410062854 43 185 3.0 4.0 0.01 0.01 0.01 90 1013.6
20210410061844 43 182 1.0 4.0 0.01 0.01 0.01 89 1013.6
20210410061314 43 182 3.0 6.0 0.01 0.01 0.01 88 1013.8
20210410060824 44 206 4.0 7.0 0.01 0.01 0.01 86 1013.7
20210410060349 44 193 3.0 7.0 0.00 0.00 0.00 83 1013.6
20210410060110 44 192 2.0 6.0 0.00 0.00 0.00 82 1013.6
20210410055853 44 265 4.0 6.0 0.00 0.00 0.00 82 1013.8
20210410054956 44 190 3.0 6.0 0.00 0.00 0.00 81 1013.8
20210410054319 44 201 2.0 6.0 0.00 0.00 0.00 82 1013.8
20210410053825 44 142 2.0 7.0 0.00 0.00 0.00 81 1013.8
20210410053309 44 153 2.0 7.0 0.00 0.00 0.00 81 1013.9
20210410052953 44 181 3.0 6.0 0.00 0.00 0.00 82 1013.9
20210410052756 44 175 3.0 6.0 0.00 0.00 0.00 82 1013.8
20210410051921 44 202 3.0 8.0 0.00 0.00 0.00 82 1014.0
20210410051330 44 189 2.0 8.0 0.00 0.00 0.00 82 1014.1
20210410050815 44 190 3.0 5.0 0.00 0.00 0.00 81 1014.0
20210410050323 45 192 1.0 5.0 0.00 0.00 0.00 81 1014.1
20210410050043 45 189 2.0 5.0 0.00 0.00 0.00 80 1014.3
20210410045845 45 189 3.0 5.0 0.00 0.00 0.00 80 1014.3
20210410044905 45 227 2.0 7.0 0.00 0.00 0.00 80 1014.3
20210410044317 45 194 3.0 7.0 0.00 0.00 0.00 79 1014.4
20210410043825 45 198 2.0 5.0 0.00 0.00 0.00 80 1014.6
20210410043320 45 184 2.0 6.0 0.00 0.00 0.00 79 1014.7
20210410042842 45 170 1.0 6.0 0.00 0.00 0.00 79 1014.8
20210410042646 45 40 2.0 6.0 0.00 0.00 0.00 79 1014.8
20210410041848 45 199 1.0 6.0 0.00 0.00 0.00 79 1015.1
20210410041322 45 184 1.0 6.0 0.00 0.00 0.00 79 1015.0
20210410040814 45 232 1.0 5.0 0.00 0.00 0.00 79 1015.1
20210410040320 45 280 3.0 5.0 0.00 0.00 0.00 79 1015.0
20210410040046 45 181 2.0 7.0 0.00 0.00 0.00 78 1015.0
20210410035846 45 205 2.0 10.0 0.00 0.00 0.00 79 1015.0
20210410034858 45 191 3.0 10.0 0.00 0.00 0.00 78 1015.1
20210410034328 45 182 3.0 6.0 0.00 0.00 0.00 78 1015.0
20210410033819 45 205 3.0 10.0 0.00 0.00 0.00 78 1015.0
20210410033318 45 68 3.0 10.0 0.00 0.00 0.00 78 1015.0
20210410033022 45 69 2.0 5.0 0.00 0.00 0.00 79 1015.3
20210410032843 45 70 3.0 5.0 0.00 0.00 0.00 79 1015.4
20210410031953 45 71 2.0 5.0 0.00 0.00 0.00 78 1015.5
20210410031329 45 70 2.0 7.0 0.00 0.00 0.00 78 1015.5
20210410030957 45 79 3.0 7.0 0.00 0.00 0.00 78 1015.5
20210410030645 45 69 2.0 4.0 0.00 0.00 0.00 78 1015.5
20210410030129 45 68 2.0 6.0 0.00 0.00 0.00 77 1015.6
20210410025925 45 69 3.0 6.0 0.00 0.00 0.00 77 1015.6
20210410024949 45 71 3.0 5.0 0.00 0.00 0.00 77 1015.7
20210410024309 45 70 1.0 5.0 0.00 0.00 0.00 76 1015.7
20210410023818 45 68 3.0 6.0 0.00 0.00 0.00 76 1015.7
20210410023322 45 69 3.0 6.0 0.00 0.00 0.00 76 1015.9
20210410022908 46 62 3.0 7.0 0.00 0.00 0.00 76 1015.8
20210410022652 46 62 3.0 7.0 0.00 0.00 0.00 75 1015.9
20210410021903 46 63 3.0 6.0 0.00 0.00 0.00 75 1015.9
20210410021309 46 60 2.0 8.0 0.00 0.00 0.00 76 1015.9
20210410020824 46 63 2.0 8.0 0.00 0.00 0.00 74 1015.9
20210410020315 46 72 2.0 6.0 0.00 0.00 0.00 75 1016.0
20210410015928 46 62 3.0 5.0 0.00 0.00 0.00 75 1016.0
20210410015743 46 72 3.0 5.0 0.00 0.00 0.00 74 1016.1
20210410014845 46 61 2.0 5.0 0.00 0.00 0.00 74 1016.1
20210410014312 47 61 1.0 4.0 0.00 0.00 0.00 74 1016.1
20210410013826 47 63 1.0 6.0 0.00 0.00 0.00 74 1016.2
20210410013316 47 62 1.0 6.0 0.00 0.00 0.00 74 1016.1
20210410012935 47 61 1.0 6.0 0.00 0.00 0.00 74 1016.3
20210410012704 47 59 2.0 6.0 0.00 0.00 0.00 73 1016.3
20210410011913 46 65 4.0 6.0 0.00 0.00 0.00 73 1016.4
20210410011328 47 60 3.0 6.0 0.00 0.00 0.00 73 1016.5
20210410010815 47 65 1.0 5.0 0.00 0.00 0.00 73 1016.5
20210410010320 47 55 1.0 5.0 0.00 0.00 0.00 74 1016.6
20210410005827 47 57 1.0 10.0 0.00 0.00 0.00 73 1016.5
20210410004952 47 56 3.0 5.0 0.00 0.00 0.00 72 1016.6
20210410004304 47 58 2.0 4.0 0.00 0.00 0.00 73 1016.6
20210410003819 47 62 1.0 5.0 0.00 0.00 0.00 71 1016.7
20210410003326 47 57 2.0 5.0 0.00 0.00 0.00 72 1016.7
20210410002815 47 59 2.0 6.0 0.00 0.00 0.00 71 1016.9
20210410002729 47 65 3.0 6.0 0.00 0.00 0.00 72 1016.9
20210410001926 47 55 1.0 8.0 0.00 0.00 0.00 72 1016.9
20210410001317 47 61 2.0 8.0 0.00 0.00 0.00 71 1017.1
20210410000831 47 59 1.0 6.0 0.00 0.00 0.00 72 1017.1
20210410000337 47 61 3.0 5.0 0.00 0.00 0.00 70 1017.2
20210409235858 47 74 1.0 4.0 0.00 0.00 0.00 71 1017.2
20210409234953 47 79 1.0 4.0 0.00 0.00 0.00 71 1017.3
20210409234323 47 10 1.0 2.0 0.00 0.00 0.00 70 1017.4
20210409233817 47 10 1.0 4.0 0.00 0.00 0.00 72 1017.3
20210409233315 47 10 1.0 5.0 0.00 0.00 0.00 71 1017.4
20210409232900 47 85 2.0 6.0 0.00 0.00 0.00 71 1017.4
20210409232718 47 84 2.0 6.0 0.00 0.00 0.00 71 1017.4
20210409231852 47 55 1.0 6.0 0.00 0.00 0.00 72 1017.6
20210409231321 47 59 2.0 6.0 0.00 0.00 0.00 70 1017.7
20210409230812 47 55 1.0 6.0 0.00 0.00 0.00 70 1017.8
20210409230620 47 54 3.0 6.0 0.00 0.00 0.00 68 1017.9
20210409230226 47 52 4.0 6.0 0.00 0.00 0.00 70 1017.8
20210409225932 47 83 2.0 7.0 0.00 0.00 0.00 69 1017.9
20210409224848 47 66 2.0 7.0 0.00 0.00 0.00 70 1017.8
20210409224326 47 50 3.0 6.0 0.00 0.00 0.00 69 1017.8
20210409223823 47 52 3.0 6.0 0.00 0.00 0.00 69 1017.9
20210409223322 47 49 3.0 5.0 0.00 0.00 0.00 68 1018.1
20210409222815 48 53 2.0 5.0 0.00 0.00 0.00 67 1018.2
20210409222525 48 44 3.0 5.0 0.00 0.00 0.00 67 1018.5
20210409221836 48 49 2.0 5.0 0.00 0.00 0.00 67 1018.4
20210409221313 48 50 1.0 5.0 0.00 0.00 0.00 66 1018.6
20210409220826 48 50 1.0 5.0 0.00 0.00 0.00 66 1018.7
20210409220318 48 51 1.0 5.0 0.00 0.00 0.00 66 1018.7
20210409215841 48 51 3.0 6.0 0.00 0.00 0.00 67 1018.8
20210409215731 48 61 2.0 7.0 0.00 0.00 0.00 65 1018.9
20210409214916 48 50 2.0 7.0 0.00 0.00 0.00 65 1018.9
20210409214338 48 56 3.0 8.0 0.00 0.00 0.00 64 1019.0
20210409213812 48 55 4.0 8.0 0.00 0.00 0.00 66 1019.0
20210409213315 48 46 2.0 6.0 0.00 0.00 0.00 64 1019.0
20210409212855 48 46 1.0 10.0 0.00 0.00 0.00 67 1019.1
20210409212641 48 49 3.0 10.0 0.00 0.00 0.00 65 1019.2
20210409211900 48 51 3.0 6.0 0.00 0.00 0.00 64 1019.2
20210409211308 48 53 2.0 11.0 0.00 0.00 0.00 66 1019.3
20210409210822 48 64 2.0 11.0 0.00 0.00 0.00 65 1019.4
20210409210322 48 43 1.0 7.0 0.00 0.00 0.00 64 1019.4
20210409205920 48 75 2.0 4.0 0.00 0.00 0.00 69 1019.4
20210409205736 47 36 1.0 5.0 0.00 0.00 0.00 66 1019.4
20210409205031 47 51 2.0 5.0 0.00 0.00 0.00 67 1019.4
20210409204325 47 75 3.0 5.0 0.00 0.00 0.00 67 1019.4
20210409203818 47 55 1.0 4.0 0.00 0.00 0.00 67 1019.5
20210409203322 47 65 1.0 4.0 0.00 0.00 0.00 68 1019.6
20210409202841 47 59 2.0 4.0 0.00 0.00 0.00 68 1019.8
20210409202627 47 65 1.0 4.0 0.00 0.00 0.00 69 1019.8
20210409201914 47 75 0.0 6.0 0.00 0.00 0.00 70 1019.8
20210409201309 47 55 1.0 6.0 0.00 0.00 0.00 68 1020.0
20210409200824 47 55 1.0 6.0 0.00 0.00 0.00 70 1020.1
20210409200330 47 10 3.0 6.0 0.00 0.00 0.00 70 1020.1
20210409200042 47 53 2.0 4.0 0.00 0.00 0.00 69 1020.0
20210409195826 47 44 1.0 4.0 0.00 0.00 0.00 68 1020.0
20210409194954 47 48 1.0 3.0 0.00 0.00 0.00 67 1019.9
20210409194332 47 54 2.0 3.0 0.00 0.00 0.00 64 1019.9
20210409193829 47 61 2.0 5.0 0.00 0.00 0.00 64 1019.9
20210409193313 47 40 3.0 5.0 0.00 0.00 0.00 64 1020.0
20210409192913 47 44 2.0 4.0 0.00 0.00 0.00 63 1020.0
20210409192721 47 63 0.0 5.0 0.00 0.00 0.00 66 1020.1
20210409191849 47 40 2.0 7.0 0.00 0.00 0.00 64 1020.0
20210409191322 47 44 4.0 7.0 0.00 0.00 0.00 64 1020.2
20210409190829 47 39 1.0 6.0 0.00 0.00 0.00 65 1020.2
20210409190322 47 39 2.0 6.0 0.00 0.00 0.00 65 1020.1
20210409190104 47 39 2.0 4.0 0.00 0.00 0.00 66 1020.2
20210409185847 47 9 1.0 10.0 0.00 0.00 0.00 66 1020.3
20210409185041 47 35 1.0 10.0 0.00 0.00 0.00 68 1020.2
20210409184320 47 32 1.0 5.0 0.00 0.00 0.00 65 1020.2
20210409183827 47 32 2.0 8.0 0.00 0.00 0.00 67 1020.4
20210409183323 46 22 1.0 4.0 0.00 0.00 0.00 68 1020.5
20210409182953 46 46 1.0 11.0 0.00 0.00 0.00 70 1020.5
20210409182756 46 72 4.0 11.0 0.00 0.00 0.00 68 1020.6
20210409181927 46 23 1.0 5.0 0.00 0.00 0.00 73 1020.7
20210409181320 45 46 1.0 4.0 0.00 0.00 0.00 72 1020.7
20210409180812 45 46 2.0 5.0 0.00 0.00 0.00 72 1020.7
20210409180455 45 46 2.0 5.0 0.00 0.00 0.00 71 1020.7
20210409180226 45 9 2.0 5.0 0.00 0.00 0.00 71 1020.7
20210409175922 45 41 1.0 6.0 0.00 0.00 0.00 72 1020.7
20210409175032 45 38 0.0 6.0 0.00 0.00 0.00 72 1020.7
20210409174317 45 33 2.0 4.0 0.00 0.00 0.00 72 1020.9
20210409173825 45 33 2.0 4.0 0.00 0.00 0.00 74 1020.9
20210409173315 45 43 2.0 4.0 0.00 0.00 0.00 75 1020.9
20210409172913 44 52 0.0 4.0 0.00 0.00 0.00 75 1021.1
20210409172732 44 54 0.0 5.0 0.00 0.00 0.00 76 1021.0
20210409171908 44 42 1.0 5.0 0.00 0.00 0.00 76 1021.1
20210409171329 44 49 2.0 4.0 0.00 0.00 0.00 76 1021.0
20210409170816 43 44 2.0 4.0 0.00 0.00 0.00 75 1020.9
20210409170319 44 40 3.0 5.0 0.00 0.00 0.00 76 1020.9
20210409170038 43 63 1.0 5.0 0.00 0.00 0.00 81 1021.0
20210409165838 43 38 2.0 5.0 0.00 0.00 0.00 81 1020.9
20210409165105 42 215 0.0 2.0 0.00 0.00 0.00 82 1021.1
20210409164324 42 5 0.0 2.0 0.00 0.00 0.00 82 1021.2
20210409163823 42 125 0.0 2.0 0.00 0.00 0.00 82 1021.5
20210409163322 42 125 1.0 2.0 0.00 0.00 0.00 81 1021.4
20210409162820 42 123 1.0 4.0 0.00 0.00 0.00 82 1021.3
20210409162431 41 198 1.0 4.0 0.00 0.00 0.00 84 1021.3
20210409161850 41 210 1.0 5.0 0.00 0.00 0.00 82 1021.2
20210409161312 41 210 2.0 5.0 0.00 0.00 0.00 83 1021.3
20210409160819 41 32 0.0 2.0 0.00 0.00 0.00 84 1021.4
20210409160432 41 32 1.0 2.0 0.00 0.00 0.00 85 1021.5
20210409155814 41 32 0.0 3.0 0.00 0.00 0.00 84 1021.4
20210409155316 40 32 1.0 4.0 0.00 0.00 0.00 86 1021.5